PATC/TNC METAR and TAF weather

Enter ICAO airport designator
Station Type Date Time Source
PATC METAR 2018/12/12 12:29 UTC NOAA

PATC 121229Z AUTO 03026KT 3/4SM -SN CLR M10/M10 A2908 RMK AO2 PK WND 03029/1211 SLP855 $


Station Type Date Time Source
PATC Decoded METAR 2018/12/12 12:29 UTC NOAA

Tin City Airways Facilities Sector, AK, United States (PATC) 65-34N 167-55W
Dec 12, 2018 - 07:29 AM EST / 2018.12.12 1229 UTC
Wind: from the NNE (030 degrees) at 30 MPH (26 KT):0
Visibility: 3/4 mile(s):0
Sky conditions: clear
Weather: light snow
Temperature: 14 F (-10 C)
Windchill: -7 F (-22 C):2
Dew Point: 14 F (-10 C)
Relative Humidity: 100%
Pressure (altimeter): 29.08 in. Hg (984 hPa)
ob: PATC 121229Z AUTO 03026KT 3/4SM -SN CLR M10/M10 A2908 RMK AO2 PK WND 03029/1211 SLP855
cycle: 12

Station Type Date Time Source
PATC TAF 2016/08/27 04:12 UTC NOAA

TAF PATC 270400Z 2704/2810 18012G18KT 0400 FG OVC002 QNH3015INS TX10/2718Z TN06/2710Z


Example: see airport list